sensor_id;sensor_type;location;lat;lon;timestamp;P1;durP1;ratioP1;P2;durP2;ratioP2
24787;SDS011;12883;52.662;5.196;2023-06-26T00:01:27;7.75;;;7.75;;
24787;SDS011;12883;52.662;5.196;2023-06-26T00:03:56;7.45;;;7.45;;
24787;SDS011;12883;52.662;5.196;2023-06-26T00:06:25;7.25;;;7.25;;
24787;SDS011;12883;52.662;5.196;2023-06-26T00:08:51;7.15;;;7.15;;
24787;SDS011;12883;52.662;5.196;2023-06-26T00:11:18;6.28;;;6.28;;
24787;SDS011;12883;52.662;5.196;2023-06-26T00:13:43;6.68;;;6.68;;
24787;SDS011;12883;52.662;5.196;2023-06-26T00:16:09;6.57;;;6.57;;
24787;SDS011;12883;52.662;5.196;2023-06-26T00:18:34;6.97;;;6.97;;
24787;SDS011;12883;52.662;5.196;2023-06-26T00:21:00;6.38;;;6.38;;
24787;SDS011;12883;52.662;5.196;2023-06-26T00:23:25;6.70;;;6.70;;
24787;SDS011;12883;52.662;5.196;2023-06-26T00:25:52;6.35;;;6.35;;
24787;SDS011;12883;52.662;5.196;2023-06-26T00:28:17;6.47;;;6.47;;
24787;SDS011;12883;52.662;5.196;2023-06-26T00:30:43;6.57;;;6.57;;
24787;SDS011;12883;52.662;5.196;2023-06-26T00:33:08;6.05;;;6.05;;
24787;SDS011;12883;52.662;5.196;2023-06-26T00:35:33;6.30;;;6.30;;
24787;SDS011;12883;52.662;5.196;2023-06-26T00:38:00;6.50;;;6.50;;
24787;SDS011;12883;52.662;5.196;2023-06-26T00:40:26;6.90;;;6.90;;
24787;SDS011;12883;52.662;5.196;2023-06-26T00:42:52;6.93;;;6.93;;
24787;SDS011;12883;52.662;5.196;2023-06-26T00:45:18;7.00;;;7.00;;
24787;SDS011;12883;52.662;5.196;2023-06-26T00:47:43;6.70;;;6.70;;
24787;SDS011;12883;52.662;5.196;2023-06-26T00:50:09;7.70;;;7.70;;
24787;SDS011;12883;52.662;5.196;2023-06-26T00:52:34;7.40;;;7.40;;
24787;SDS011;12883;52.662;5.196;2023-06-26T00:55:00;7.60;;;7.60;;
24787;SDS011;12883;52.662;5.196;2023-06-26T00:57:25;7.97;;;7.97;;
24787;SDS011;12883;52.662;5.196;2023-06-26T00:59:51;7.70;;;7.70;;
24787;SDS011;12883;52.662;5.196;2023-06-26T01:02:17;6.70;;;6.70;;
24787;SDS011;12883;52.662;5.196;2023-06-26T01:04:46;6.60;;;6.60;;
24787;SDS011;12883;52.662;5.196;2023-06-26T01:07:15;6.80;;;6.80;;
24787;SDS011;12883;52.662;5.196;2023-06-26T01:09:43;6.03;;;6.03;;
24787;SDS011;12883;52.662;5.196;2023-06-26T01:12:10;6.75;;;6.75;;
24787;SDS011;12883;52.662;5.196;2023-06-26T01:14:35;6.32;;;6.32;;
24787;SDS011;12883;52.662;5.196;2023-06-26T01:17:01;6.13;;;6.13;;
24787;SDS011;12883;52.662;5.196;2023-06-26T01:19:28;6.43;;;6.43;;
24787;SDS011;12883;52.662;5.196;2023-06-26T01:22:00;5.60;;;5.60;;
24787;SDS011;12883;52.662;5.196;2023-06-26T01:24:29;5.80;;;5.80;;
24787;SDS011;12883;52.662;5.196;2023-06-26T01:26:58;5.60;;;5.60;;
24787;SDS011;12883;52.662;5.196;2023-06-26T01:29:26;5.95;;;5.95;;
24787;SDS011;12883;52.662;5.196;2023-06-26T01:31:53;5.88;;;5.88;;
24787;SDS011;12883;52.662;5.196;2023-06-26T01:34:19;6.13;;;6.13;;
24787;SDS011;12883;52.662;5.196;2023-06-26T01:36:45;5.70;;;5.70;;
24787;SDS011;12883;52.662;5.196;2023-06-26T01:39:12;6.90;;;6.90;;
24787;SDS011;12883;52.662;5.196;2023-06-26T01:41:40;6.13;;;6.13;;
24787;SDS011;12883;52.662;5.196;2023-06-26T01:52:29;6.43;;;6.43;;
24787;SDS011;12883;52.662;5.196;2023-06-26T01:57:56;7.03;;;7.03;;
24787;SDS011;12883;52.662;5.196;2023-06-26T02:00:23;7.38;;;7.38;;
24787;SDS011;12883;52.662;5.196;2023-06-26T02:02:49;7.00;;;7.00;;
24787;SDS011;12883;52.662;5.196;2023-06-26T02:05:15;7.45;;;7.45;;
24787;SDS011;12883;52.662;5.196;2023-06-26T02:07:40;7.38;;;7.38;;
24787;SDS011;12883;52.662;5.196;2023-06-26T02:10:06;6.35;;;6.35;;
24787;SDS011;12883;52.662;5.196;2023-06-26T02:12:32;7.30;;;7.30;;
24787;SDS011;12883;52.662;5.196;2023-06-26T02:14:59;7.15;;;7.15;;
24787;SDS011;12883;52.662;5.196;2023-06-26T02:17:24;7.63;;;7.63;;
24787;SDS011;12883;52.662;5.196;2023-06-26T02:19:50;7.70;;;7.70;;
24787;SDS011;12883;52.662;5.196;2023-06-26T02:22:15;8.02;;;8.02;;
24787;SDS011;12883;52.662;5.196;2023-06-26T02:24:42;7.10;;;7.10;;
24787;SDS011;12883;52.662;5.196;2023-06-26T02:27:08;8.68;;;8.68;;
24787;SDS011;12883;52.662;5.196;2023-06-26T02:29:34;8.50;;;8.43;;
24787;SDS011;12883;52.662;5.196;2023-06-26T02:32:00;8.80;;;8.70;;
24787;SDS011;12883;52.662;5.196;2023-06-26T02:34:25;8.18;;;8.18;;
24787;SDS011;12883;52.662;5.196;2023-06-26T02:36:50;7.95;;;7.95;;
24787;SDS011;12883;52.662;5.196;2023-06-26T02:39:19;8.45;;;8.40;;
24787;SDS011;12883;52.662;5.196;2023-06-26T02:41:45;9.52;;;9.52;;
24787;SDS011;12883;52.662;5.196;2023-06-26T02:44:11;9.45;;;9.35;;
24787;SDS011;12883;52.662;5.196;2023-06-26T02:46:37;8.80;;;8.80;;
24787;SDS011;12883;52.662;5.196;2023-06-26T02:49:03;11.15;;;11.05;;
24787;SDS011;12883;52.662;5.196;2023-06-26T02:51:31;9.98;;;9.93;;
24787;SDS011;12883;52.662;5.196;2023-06-26T02:53:57;8.98;;;8.98;;
24787;SDS011;12883;52.662;5.196;2023-06-26T02:56:22;9.65;;;9.55;;
24787;SDS011;12883;52.662;5.196;2023-06-26T02:58:48;9.73;;;9.73;;
24787;SDS011;12883;52.662;5.196;2023-06-26T03:01:13;10.02;;;9.95;;
24787;SDS011;12883;52.662;5.196;2023-06-26T03:03:40;9.60;;;9.52;;
24787;SDS011;12883;52.662;5.196;2023-06-26T03:06:07;9.05;;;9.05;;
24787;SDS011;12883;52.662;5.196;2023-06-26T03:08:33;8.75;;;8.75;;
24787;SDS011;12883;52.662;5.196;2023-06-26T03:11:00;8.38;;;8.38;;
24787;SDS011;12883;52.662;5.196;2023-06-26T03:13:25;9.65;;;9.55;;
24787;SDS011;12883;52.662;5.196;2023-06-26T03:15:50;8.98;;;8.98;;
24787;SDS011;12883;52.662;5.196;2023-06-26T03:18:16;9.50;;;9.43;;
24787;SDS011;12883;52.662;5.196;2023-06-26T03:20:41;9.10;;;9.10;;
24787;SDS011;12883;52.662;5.196;2023-06-26T03:23:07;8.10;;;8.10;;
24787;SDS011;12883;52.662;5.196;2023-06-26T03:25:32;10.13;;;10.02;;
24787;SDS011;12883;52.662;5.196;2023-06-26T03:27:57;8.52;;;8.52;;
24787;SDS011;12883;52.662;5.196;2023-06-26T03:30:23;9.00;;;8.90;;
24787;SDS011;12883;52.662;5.196;2023-06-26T03:32:48;8.68;;;8.68;;
24787;SDS011;12883;52.662;5.196;2023-06-26T03:35:13;8.15;;;8.15;;
24787;SDS011;12883;52.662;5.196;2023-06-26T03:37:39;8.63;;;8.60;;
24787;SDS011;12883;52.662;5.196;2023-06-26T03:40:05;8.80;;;8.80;;
24787;SDS011;12883;52.662;5.196;2023-06-26T03:42:31;8.30;;;8.27;;
24787;SDS011;12883;52.662;5.196;2023-06-26T03:44:56;8.73;;;8.73;;
24787;SDS011;12883;52.662;5.196;2023-06-26T03:47:22;9.02;;;9.02;;
24787;SDS011;12883;52.662;5.196;2023-06-26T03:49:47;8.57;;;8.57;;
24787;SDS011;12883;52.662;5.196;2023-06-26T03:52:12;7.97;;;7.97;;
24787;SDS011;12883;52.662;5.196;2023-06-26T03:54:38;8.23;;;8.23;;
24787;SDS011;12883;52.662;5.196;2023-06-26T03:57:03;7.38;;;7.38;;
24787;SDS011;12883;52.662;5.196;2023-06-26T03:59:29;6.78;;;6.78;;
24787;SDS011;12883;52.662;5.196;2023-06-26T04:01:54;6.70;;;6.70;;
24787;SDS011;12883;52.662;5.196;2023-06-26T04:04:19;7.47;;;7.47;;
24787;SDS011;12883;52.662;5.196;2023-06-26T04:06:45;6.03;;;6.03;;
24787;SDS011;12883;52.662;5.196;2023-06-26T04:09:10;6.10;;;6.10;;
24787;SDS011;12883;52.662;5.196;2023-06-26T04:11:35;5.78;;;5.78;;
24787;SDS011;12883;52.662;5.196;2023-06-26T04:14:01;5.43;;;5.43;;
24787;SDS011;12883;52.662;5.196;2023-06-26T04:16:27;4.32;;;4.32;;
24787;SDS011;12883;52.662;5.196;2023-06-26T04:18:53;4.38;;;4.38;;
24787;SDS011;12883;52.662;5.196;2023-06-26T04:21:21;4.40;;;4.40;;
24787;SDS011;12883;52.662;5.196;2023-06-26T04:23:48;4.65;;;4.65;;
24787;SDS011;12883;52.662;5.196;2023-06-26T04:26:14;4.47;;;4.47;;
24787;SDS011;12883;52.662;5.196;2023-06-26T04:28:40;3.92;;;3.92;;
24787;SDS011;12883;52.662;5.196;2023-06-26T04:31:05;4.60;;;4.60;;
24787;SDS011;12883;52.662;5.196;2023-06-26T04:33:31;4.03;;;4.03;;
24787;SDS011;12883;52.662;5.196;2023-06-26T04:35:56;4.68;;;4.68;;
24787;SDS011;12883;52.662;5.196;2023-06-26T04:38:22;4.20;;;4.20;;
24787;SDS011;12883;52.662;5.196;2023-06-26T04:40:48;4.38;;;4.38;;
24787;SDS011;12883;52.662;5.196;2023-06-26T04:43:14;4.50;;;4.50;;
24787;SDS011;12883;52.662;5.196;2023-06-26T04:45:39;5.57;;;5.57;;
24787;SDS011;12883;52.662;5.196;2023-06-26T04:48:05;4.15;;;4.15;;
24787;SDS011;12883;52.662;5.196;2023-06-26T04:50:31;4.43;;;4.43;;
24787;SDS011;12883;52.662;5.196;2023-06-26T04:52:58;4.30;;;4.30;;
24787;SDS011;12883;52.662;5.196;2023-06-26T04:55:24;4.32;;;4.32;;
24787;SDS011;12883;52.662;5.196;2023-06-26T04:57:50;4.60;;;4.60;;
24787;SDS011;12883;52.662;5.196;2023-06-26T05:00:15;4.35;;;4.35;;
24787;SDS011;12883;52.662;5.196;2023-06-26T05:02:41;4.88;;;4.88;;
24787;SDS011;12883;52.662;5.196;2023-06-26T05:05:07;4.75;;;4.75;;
24787;SDS011;12883;52.662;5.196;2023-06-26T05:07:32;4.30;;;4.30;;
24787;SDS011;12883;52.662;5.196;2023-06-26T05:09:58;4.18;;;4.18;;
24787;SDS011;12883;52.662;5.196;2023-06-26T05:12:23;4.68;;;4.68;;
24787;SDS011;12883;52.662;5.196;2023-06-26T05:14:48;4.15;;;4.15;;
24787;SDS011;12883;52.662;5.196;2023-06-26T05:17:14;4.30;;;4.30;;
24787;SDS011;12883;52.662;5.196;2023-06-26T05:19:39;4.15;;;4.15;;
24787;SDS011;12883;52.662;5.196;2023-06-26T05:22:05;4.20;;;4.20;;
24787;SDS011;12883;52.662;5.196;2023-06-26T05:24:35;4.47;;;4.47;;
24787;SDS011;12883;52.662;5.196;2023-06-26T05:27:01;4.18;;;4.18;;
24787;SDS011;12883;52.662;5.196;2023-06-26T05:29:27;4.43;;;4.43;;
24787;SDS011;12883;52.662;5.196;2023-06-26T05:31:54;4.47;;;4.47;;
24787;SDS011;12883;52.662;5.196;2023-06-26T05:34:22;4.95;;;4.95;;
24787;SDS011;12883;52.662;5.196;2023-06-26T05:36:50;4.15;;;4.15;;
24787;SDS011;12883;52.662;5.196;2023-06-26T05:39:16;4.60;;;4.60;;
24787;SDS011;12883;52.662;5.196;2023-06-26T05:41:45;3.30;;;3.30;;
24787;SDS011;12883;52.662;5.196;2023-06-26T05:44:11;3.80;;;3.80;;
24787;SDS011;12883;52.662;5.196;2023-06-26T05:46:36;4.32;;;4.32;;
24787;SDS011;12883;52.662;5.196;2023-06-26T05:49:02;4.88;;;4.88;;
24787;SDS011;12883;52.662;5.196;2023-06-26T05:51:27;3.97;;;3.97;;
24787;SDS011;12883;52.662;5.196;2023-06-26T05:53:53;4.13;;;4.13;;
24787;SDS011;12883;52.662;5.196;2023-06-26T05:56:19;4.68;;;4.68;;
24787;SDS011;12883;52.662;5.196;2023-06-26T05:58:45;3.70;;;3.70;;
24787;SDS011;12883;52.662;5.196;2023-06-26T06:01:11;3.45;;;3.45;;
24787;SDS011;12883;52.662;5.196;2023-06-26T06:03:36;3.15;;;3.15;;
24787;SDS011;12883;52.662;5.196;2023-06-26T06:06:02;3.05;;;3.05;;
24787;SDS011;12883;52.662;5.196;2023-06-26T06:08:28;3.00;;;3.00;;
24787;SDS011;12883;52.662;5.196;2023-06-26T06:10:53;3.33;;;3.33;;
24787;SDS011;12883;52.662;5.196;2023-06-26T06:13:19;2.80;;;2.80;;
24787;SDS011;12883;52.662;5.196;2023-06-26T06:15:44;2.95;;;2.95;;
24787;SDS011;12883;52.662;5.196;2023-06-26T06:18:10;2.65;;;2.65;;
24787;SDS011;12883;52.662;5.196;2023-06-26T06:20:35;3.33;;;3.33;;
24787;SDS011;12883;52.662;5.196;2023-06-26T06:23:01;3.28;;;3.28;;
24787;SDS011;12883;52.662;5.196;2023-06-26T06:25:26;3.53;;;3.53;;
24787;SDS011;12883;52.662;5.196;2023-06-26T06:27:51;3.35;;;3.35;;
24787;SDS011;12883;52.662;5.196;2023-06-26T06:30:17;3.15;;;3.15;;
24787;SDS011;12883;52.662;5.196;2023-06-26T06:32:42;3.28;;;3.28;;
24787;SDS011;12883;52.662;5.196;2023-06-26T06:35:08;3.08;;;3.08;;
24787;SDS011;12883;52.662;5.196;2023-06-26T06:37:37;3.55;;;3.55;;
24787;SDS011;12883;52.662;5.196;2023-06-26T06:40:06;3.55;;;3.55;;
24787;SDS011;12883;52.662;5.196;2023-06-26T06:42:34;3.60;;;3.60;;
24787;SDS011;12883;52.662;5.196;2023-06-26T06:44:59;3.45;;;3.45;;
24787;SDS011;12883;52.662;5.196;2023-06-26T06:47:25;3.45;;;3.45;;
24787;SDS011;12883;52.662;5.196;2023-06-26T06:49:50;3.80;;;3.80;;
24787;SDS011;12883;52.662;5.196;2023-06-26T06:52:16;3.63;;;3.63;;
24787;SDS011;12883;52.662;5.196;2023-06-26T06:54:50;3.15;;;3.15;;
24787;SDS011;12883;52.662;5.196;2023-06-26T06:57:20;3.45;;;3.45;;
24787;SDS011;12883;52.662;5.196;2023-06-26T06:59:46;3.67;;;3.67;;
24787;SDS011;12883;52.662;5.196;2023-06-26T07:02:13;3.30;;;3.30;;
24787;SDS011;12883;52.662;5.196;2023-06-26T07:04:39;3.42;;;3.42;;
24787;SDS011;12883;52.662;5.196;2023-06-26T07:07:04;3.42;;;3.42;;
24787;SDS011;12883;52.662;5.196;2023-06-26T07:09:30;4.10;;;4.10;;
24787;SDS011;12883;52.662;5.196;2023-06-26T07:11:55;3.10;;;3.10;;
24787;SDS011;12883;52.662;5.196;2023-06-26T07:14:20;3.25;;;3.25;;
24787;SDS011;12883;52.662;5.196;2023-06-26T07:16:46;3.10;;;3.10;;
24787;SDS011;12883;52.662;5.196;2023-06-26T07:19:11;2.97;;;2.97;;
24787;SDS011;12883;52.662;5.196;2023-06-26T07:21:37;3.65;;;3.65;;
24787;SDS011;12883;52.662;5.196;2023-06-26T07:24:02;3.90;;;3.90;;
24787;SDS011;12883;52.662;5.196;2023-06-26T07:26:27;3.22;;;3.22;;
24787;SDS011;12883;52.662;5.196;2023-06-26T07:28:53;3.25;;;3.25;;
24787;SDS011;12883;52.662;5.196;2023-06-26T07:31:21;3.30;;;3.30;;
24787;SDS011;12883;52.662;5.196;2023-06-26T07:33:47;3.00;;;3.00;;
24787;SDS011;12883;52.662;5.196;2023-06-26T07:36:12;3.47;;;3.47;;
24787;SDS011;12883;52.662;5.196;2023-06-26T07:38:38;3.28;;;3.28;;
24787;SDS011;12883;52.662;5.196;2023-06-26T07:41:03;3.33;;;3.33;;
24787;SDS011;12883;52.662;5.196;2023-06-26T07:43:28;3.60;;;3.60;;
24787;SDS011;12883;52.662;5.196;2023-06-26T07:45:54;3.85;;;3.85;;
24787;SDS011;12883;52.662;5.196;2023-06-26T07:48:19;3.60;;;3.60;;
24787;SDS011;12883;52.662;5.196;2023-06-26T07:50:45;3.97;;;3.97;;
24787;SDS011;12883;52.662;5.196;2023-06-26T07:53:10;3.78;;;3.78;;
24787;SDS011;12883;52.662;5.196;2023-06-26T07:55:35;4.32;;;4.32;;
24787;SDS011;12883;52.662;5.196;2023-06-26T07:58:01;4.35;;;4.35;;
24787;SDS011;12883;52.662;5.196;2023-06-26T08:00:26;4.60;;;4.60;;
24787;SDS011;12883;52.662;5.196;2023-06-26T08:02:52;4.30;;;4.30;;
24787;SDS011;12883;52.662;5.196;2023-06-26T08:05:18;3.53;;;3.53;;
24787;SDS011;12883;52.662;5.196;2023-06-26T08:07:43;4.18;;;4.18;;
24787;SDS011;12883;52.662;5.196;2023-06-26T08:10:09;4.35;;;4.35;;
24787;SDS011;12883;52.662;5.196;2023-06-26T08:12:34;3.97;;;3.97;;
24787;SDS011;12883;52.662;5.196;2023-06-26T08:15:01;3.55;;;3.55;;
24787;SDS011;12883;52.662;5.196;2023-06-26T08:17:28;4.10;;;4.10;;
24787;SDS011;12883;52.662;5.196;2023-06-26T08:19:53;4.43;;;4.43;;
24787;SDS011;12883;52.662;5.196;2023-06-26T08:22:18;3.90;;;3.90;;
24787;SDS011;12883;52.662;5.196;2023-06-26T08:24:44;3.63;;;3.63;;
24787;SDS011;12883;52.662;5.196;2023-06-26T08:27:09;3.70;;;3.70;;
24787;SDS011;12883;52.662;5.196;2023-06-26T08:29:35;3.55;;;3.55;;
24787;SDS011;12883;52.662;5.196;2023-06-26T08:32:00;3.60;;;3.60;;
24787;SDS011;12883;52.662;5.196;2023-06-26T08:34:27;3.95;;;3.95;;
24787;SDS011;12883;52.662;5.196;2023-06-26T08:36:52;3.05;;;3.05;;
24787;SDS011;12883;52.662;5.196;2023-06-26T08:39:18;3.80;;;3.80;;
24787;SDS011;12883;52.662;5.196;2023-06-26T08:41:43;3.78;;;3.78;;
24787;SDS011;12883;52.662;5.196;2023-06-26T08:44:09;3.65;;;3.65;;
24787;SDS011;12883;52.662;5.196;2023-06-26T08:46:35;4.00;;;4.00;;
24787;SDS011;12883;52.662;5.196;2023-06-26T08:49:01;3.67;;;3.67;;
24787;SDS011;12883;52.662;5.196;2023-06-26T08:51:33;3.72;;;3.72;;
24787;SDS011;12883;52.662;5.196;2023-06-26T08:54:03;3.15;;;3.15;;
24787;SDS011;12883;52.662;5.196;2023-06-26T08:56:37;3.75;;;3.75;;
24787;SDS011;12883;52.662;5.196;2023-06-26T08:59:06;3.83;;;3.83;;
24787;SDS011;12883;52.662;5.196;2023-06-26T09:01:32;3.55;;;3.55;;
24787;SDS011;12883;52.662;5.196;2023-06-26T09:03:58;3.70;;;3.70;;
24787;SDS011;12883;52.662;5.196;2023-06-26T09:06:23;3.63;;;3.63;;
24787;SDS011;12883;52.662;5.196;2023-06-26T09:08:49;3.88;;;3.88;;
24787;SDS011;12883;52.662;5.196;2023-06-26T09:11:14;3.85;;;3.85;;
24787;SDS011;12883;52.662;5.196;2023-06-26T09:13:40;3.15;;;3.15;;
24787;SDS011;12883;52.662;5.196;2023-06-26T09:16:07;4.18;;;4.18;;
24787;SDS011;12883;52.662;5.196;2023-06-26T09:18:35;3.88;;;3.88;;
24787;SDS011;12883;52.662;5.196;2023-06-26T09:21:10;3.50;;;3.50;;
24787;SDS011;12883;52.662;5.196;2023-06-26T09:23:36;3.22;;;3.22;;
24787;SDS011;12883;52.662;5.196;2023-06-26T09:26:05;3.40;;;3.40;;
24787;SDS011;12883;52.662;5.196;2023-06-26T09:28:31;3.35;;;3.35;;
24787;SDS011;12883;52.662;5.196;2023-06-26T09:31:01;3.15;;;3.15;;
24787;SDS011;12883;52.662;5.196;2023-06-26T09:33:37;3.28;;;3.28;;
24787;SDS011;12883;52.662;5.196;2023-06-26T09:36:18;3.05;;;3.05;;
24787;SDS011;12883;52.662;5.196;2023-06-26T09:38:45;3.08;;;3.08;;
24787;SDS011;12883;52.662;5.196;2023-06-26T09:41:11;2.92;;;2.92;;
24787;SDS011;12883;52.662;5.196;2023-06-26T09:43:45;2.83;;;2.83;;
24787;SDS011;12883;52.662;5.196;2023-06-26T09:46:26;2.30;;;2.30;;
24787;SDS011;12883;52.662;5.196;2023-06-26T09:51:26;2.10;;;2.10;;
24787;SDS011;12883;52.662;5.196;2023-06-26T09:53:51;1.85;;;1.85;;
24787;SDS011;12883;52.662;5.196;2023-06-26T09:56:17;1.80;;;1.80;;
24787;SDS011;12883;52.662;5.196;2023-06-26T09:58:43;2.58;;;2.58;;
24787;SDS011;12883;52.662;5.196;2023-06-26T10:01:09;2.28;;;2.28;;
24787;SDS011;12883;52.662;5.196;2023-06-26T10:03:35;1.92;;;1.92;;
24787;SDS011;12883;52.662;5.196;2023-06-26T10:06:01;2.15;;;2.15;;
24787;SDS011;12883;52.662;5.196;2023-06-26T10:08:28;2.30;;;2.30;;
24787;SDS011;12883;52.662;5.196;2023-06-26T10:10:54;1.88;;;1.88;;
24787;SDS011;12883;52.662;5.196;2023-06-26T10:13:22;2.45;;;2.45;;
24787;SDS011;12883;52.662;5.196;2023-06-26T10:15:50;2.22;;;2.22;;
24787;SDS011;12883;52.662;5.196;2023-06-26T10:18:17;2.47;;;2.47;;
24787;SDS011;12883;52.662;5.196;2023-06-26T10:20:45;2.83;;;2.83;;
24787;SDS011;12883;52.662;5.196;2023-06-26T10:23:12;2.20;;;2.20;;
24787;SDS011;12883;52.662;5.196;2023-06-26T10:25:40;2.63;;;2.63;;
24787;SDS011;12883;52.662;5.196;2023-06-26T10:28:09;2.55;;;2.55;;
24787;SDS011;12883;52.662;5.196;2023-06-26T10:30:37;2.53;;;2.53;;
24787;SDS011;12883;52.662;5.196;2023-06-26T10:33:04;2.13;;;2.13;;
24787;SDS011;12883;52.662;5.196;2023-06-26T10:35:32;2.70;;;2.70;;
24787;SDS011;12883;52.662;5.196;2023-06-26T10:38:01;2.40;;;2.40;;
24787;SDS011;12883;52.662;5.196;2023-06-26T10:40:47;3.17;;;3.17;;
24787;SDS011;12883;52.662;5.196;2023-06-26T10:43:16;2.28;;;2.28;;
24787;SDS011;12883;52.662;5.196;2023-06-26T10:45:44;2.53;;;2.53;;
24787;SDS011;12883;52.662;5.196;2023-06-26T10:48:14;2.10;;;2.10;;
24787;SDS011;12883;52.662;5.196;2023-06-26T10:50:40;2.50;;;2.50;;
24787;SDS011;12883;52.662;5.196;2023-06-26T10:55:34;1.85;;;1.85;;
24787;SDS011;12883;52.662;5.196;2023-06-26T10:58:01;2.70;;;2.70;;
24787;SDS011;12883;52.662;5.196;2023-06-26T11:00:29;2.58;;;2.58;;
24787;SDS011;12883;52.662;5.196;2023-06-26T11:02:55;2.53;;;2.53;;
24787;SDS011;12883;52.662;5.196;2023-06-26T11:05:27;2.47;;;2.47;;
24787;SDS011;12883;52.662;5.196;2023-06-26T11:08:12;2.38;;;2.38;;
24787;SDS011;12883;52.662;5.196;2023-06-26T11:10:53;2.20;;;2.20;;
24787;SDS011;12883;52.662;5.196;2023-06-26T11:13:24;2.70;;;2.70;;
24787;SDS011;12883;52.662;5.196;2023-06-26T11:15:51;2.80;;;2.80;;
24787;SDS011;12883;52.662;5.196;2023-06-26T11:18:17;3.33;;;3.33;;
24787;SDS011;12883;52.662;5.196;2023-06-26T11:20:42;2.17;;;2.17;;
24787;SDS011;12883;52.662;5.196;2023-06-26T11:23:08;2.58;;;2.58;;
24787;SDS011;12883;52.662;5.196;2023-06-26T11:25:35;2.58;;;2.58;;
24787;SDS011;12883;52.662;5.196;2023-06-26T11:28:02;2.47;;;2.47;;
24787;SDS011;12883;52.662;5.196;2023-06-26T11:30:29;2.65;;;2.65;;
24787;SDS011;12883;52.662;5.196;2023-06-26T11:33:04;2.33;;;2.33;;
24787;SDS011;12883;52.662;5.196;2023-06-26T11:35:34;2.60;;;2.60;;
24787;SDS011;12883;52.662;5.196;2023-06-26T11:38:00;2.00;;;2.00;;
24787;SDS011;12883;52.662;5.196;2023-06-26T11:40:33;2.63;;;2.63;;
24787;SDS011;12883;52.662;5.196;2023-06-26T11:43:00;2.47;;;2.47;;
24787;SDS011;12883;52.662;5.196;2023-06-26T11:45:33;2.40;;;2.40;;
24787;SDS011;12883;52.662;5.196;2023-06-26T11:47:59;2.00;;;2.00;;
24787;SDS011;12883;52.662;5.196;2023-06-26T11:50:25;2.80;;;2.80;;
24787;SDS011;12883;52.662;5.196;2023-06-26T11:52:57;2.20;;;2.20;;
24787;SDS011;12883;52.662;5.196;2023-06-26T11:55:24;2.40;;;2.40;;
24787;SDS011;12883;52.662;5.196;2023-06-26T11:57:53;2.70;;;2.70;;
24787;SDS011;12883;52.662;5.196;2023-06-26T12:00:19;2.00;;;2.00;;
24787;SDS011;12883;52.662;5.196;2023-06-26T12:02:45;2.42;;;2.42;;
24787;SDS011;12883;52.662;5.196;2023-06-26T12:05:15;1.92;;;1.92;;
24787;SDS011;12883;52.662;5.196;2023-06-26T12:07:42;2.47;;;2.47;;
24787;SDS011;12883;52.662;5.196;2023-06-26T12:10:09;2.00;;;2.00;;
24787;SDS011;12883;52.662;5.196;2023-06-26T12:12:36;2.30;;;2.30;;
24787;SDS011;12883;52.662;5.196;2023-06-26T12:15:02;2.17;;;2.17;;
24787;SDS011;12883;52.662;5.196;2023-06-26T12:17:28;1.50;;;1.50;;
24787;SDS011;12883;52.662;5.196;2023-06-26T12:19:54;2.10;;;2.10;;
24787;SDS011;12883;52.662;5.196;2023-06-26T12:22:19;3.25;;;3.25;;
24787;SDS011;12883;52.662;5.196;2023-06-26T12:24:45;2.10;;;2.10;;
24787;SDS011;12883;52.662;5.196;2023-06-26T12:27:13;2.90;;;2.90;;
24787;SDS011;12883;52.662;5.196;2023-06-26T12:29:45;2.28;;;2.28;;
24787;SDS011;12883;52.662;5.196;2023-06-26T12:32:15;3.95;;;3.85;;
24787;SDS011;12883;52.662;5.196;2023-06-26T12:34:41;2.90;;;2.90;;
24787;SDS011;12883;52.662;5.196;2023-06-26T12:37:08;2.15;;;2.15;;
24787;SDS011;12883;52.662;5.196;2023-06-26T12:39:50;1.77;;;1.77;;
24787;SDS011;12883;52.662;5.196;2023-06-26T12:44:47;2.05;;;2.05;;
24787;SDS011;12883;52.662;5.196;2023-06-26T12:47:14;2.35;;;2.35;;
24787;SDS011;12883;52.662;5.196;2023-06-26T12:49:41;1.70;;;1.70;;
24787;SDS011;12883;52.662;5.196;2023-06-26T12:52:08;2.20;;;2.20;;
24787;SDS011;12883;52.662;5.196;2023-06-26T12:54:35;2.65;;;2.65;;
24787;SDS011;12883;52.662;5.196;2023-06-26T12:57:04;2.08;;;2.08;;
24787;SDS011;12883;52.662;5.196;2023-06-26T12:59:30;2.05;;;2.05;;
24787;SDS011;12883;52.662;5.196;2023-06-26T13:01:56;1.97;;;1.97;;
24787;SDS011;12883;52.662;5.196;2023-06-26T13:04:23;2.25;;;2.25;;
24787;SDS011;12883;52.662;5.196;2023-06-26T13:06:48;2.55;;;2.55;;
24787;SDS011;12883;52.662;5.196;2023-06-26T13:09:14;2.00;;;2.00;;
24787;SDS011;12883;52.662;5.196;2023-06-26T13:11:40;2.15;;;2.15;;
24787;SDS011;12883;52.662;5.196;2023-06-26T13:14:05;2.03;;;2.03;;
24787;SDS011;12883;52.662;5.196;2023-06-26T13:16:31;2.45;;;2.45;;
24787;SDS011;12883;52.662;5.196;2023-06-26T13:18:58;1.75;;;1.75;;
24787;SDS011;12883;52.662;5.196;2023-06-26T13:21:23;1.60;;;1.60;;
24787;SDS011;12883;52.662;5.196;2023-06-26T13:23:49;1.80;;;1.80;;
24787;SDS011;12883;52.662;5.196;2023-06-26T13:26:15;2.05;;;2.05;;
24787;SDS011;12883;52.662;5.196;2023-06-26T13:28:40;1.73;;;1.73;;
24787;SDS011;12883;52.662;5.196;2023-06-26T13:31:06;2.00;;;2.00;;
24787;SDS011;12883;52.662;5.196;2023-06-26T13:33:31;1.70;;;1.70;;
24787;SDS011;12883;52.662;5.196;2023-06-26T13:35:57;2.03;;;2.03;;
24787;SDS011;12883;52.662;5.196;2023-06-26T13:38:24;1.70;;;1.70;;
24787;SDS011;12883;52.662;5.196;2023-06-26T13:40:53;2.75;;;2.75;;
24787;SDS011;12883;52.662;5.196;2023-06-26T13:43:20;1.75;;;1.75;;
24787;SDS011;12883;52.662;5.196;2023-06-26T13:45:46;1.73;;;1.73;;
24787;SDS011;12883;52.662;5.196;2023-06-26T13:48:12;1.88;;;1.88;;
24787;SDS011;12883;52.662;5.196;2023-06-26T13:50:37;1.88;;;1.88;;
24787;SDS011;12883;52.662;5.196;2023-06-26T13:53:03;1.58;;;1.58;;
24787;SDS011;12883;52.662;5.196;2023-06-26T13:55:28;2.15;;;2.15;;
24787;SDS011;12883;52.662;5.196;2023-06-26T13:57:54;1.52;;;1.52;;
24787;SDS011;12883;52.662;5.196;2023-06-26T14:00:20;1.40;;;1.40;;
24787;SDS011;12883;52.662;5.196;2023-06-26T14:02:48;2.00;;;2.00;;
24787;SDS011;12883;52.662;5.196;2023-06-26T14:05:13;1.52;;;1.52;;
24787;SDS011;12883;52.662;5.196;2023-06-26T14:07:39;2.45;;;2.45;;
24787;SDS011;12883;52.662;5.196;2023-06-26T14:10:04;2.00;;;2.00;;
24787;SDS011;12883;52.662;5.196;2023-06-26T14:12:33;2.05;;;2.05;;
24787;SDS011;12883;52.662;5.196;2023-06-26T14:14:59;1.80;;;1.80;;
24787;SDS011;12883;52.662;5.196;2023-06-26T14:17:25;1.77;;;1.77;;
24787;SDS011;12883;52.662;5.196;2023-06-26T14:19:50;2.00;;;2.00;;
24787;SDS011;12883;52.662;5.196;2023-06-26T14:22:17;1.92;;;1.92;;
24787;SDS011;12883;52.662;5.196;2023-06-26T14:24:42;2.08;;;2.08;;
24787;SDS011;12883;52.662;5.196;2023-06-26T14:27:07;2.35;;;2.35;;
24787;SDS011;12883;52.662;5.196;2023-06-26T14:29:33;2.03;;;2.03;;
24787;SDS011;12883;52.662;5.196;2023-06-26T14:31:58;2.42;;;2.42;;
24787;SDS011;12883;52.662;5.196;2023-06-26T14:34:23;2.25;;;2.25;;
24787;SDS011;12883;52.662;5.196;2023-06-26T14:36:49;2.00;;;2.00;;
24787;SDS011;12883;52.662;5.196;2023-06-26T14:39:14;1.83;;;1.83;;
24787;SDS011;12883;52.662;5.196;2023-06-26T14:41:40;1.95;;;1.95;;
24787;SDS011;12883;52.662;5.196;2023-06-26T14:44:05;1.73;;;1.73;;
24787;SDS011;12883;52.662;5.196;2023-06-26T14:46:33;2.08;;;2.08;;
24787;SDS011;12883;52.662;5.196;2023-06-26T14:48:58;1.60;;;1.60;;
24787;SDS011;12883;52.662;5.196;2023-06-26T14:51:24;2.28;;;2.28;;
24787;SDS011;12883;52.662;5.196;2023-06-26T14:53:50;1.75;;;1.75;;
24787;SDS011;12883;52.662;5.196;2023-06-26T14:56:16;1.75;;;1.75;;
24787;SDS011;12883;52.662;5.196;2023-06-26T14:58:41;1.90;;;1.90;;
24787;SDS011;12883;52.662;5.196;2023-06-26T15:01:07;1.90;;;1.90;;
24787;SDS011;12883;52.662;5.196;2023-06-26T15:03:32;2.20;;;2.20;;